Mc Caulley, Texas
Current Conditions -  °F | °C
As of 9:35 AM on Saturday 25 Oct 2014 (Local Time) from KSWW Reporting Station
Clear Clear  
Wind Chill: 69°   Ceiling: Unl
Heat Index: 69°   Visibility: 10mi
Dew Point: 60°   Wind: 15mph
Humidity: 73%   Direction: 210°SSW
Pressure: 30.22"   Gusts: NA
Location:  32.7942°N, 100.223°W
Report Text: KSWW 251435Z AUTO 21013KT 10SM CLR 21/16 A3022 RMK AO2 T02070158
Loading
Personal Weather Stations






























Interactive Weather Map
Tropical Storm Tracking
New forecast layout! Learn more

10-Day Weather Forecast

Advertisements
Track Severe Weather on mobile